Latest Coastal Weather Observations for Friendly Beaches

IDT60701

Issued at 6:11 am EDT Sunday 1 February 2015 (issued every 10 minutes, with the page automatically refreshed every 10 minutes)

About coastal observations | Map of coastal stations | Coastal observations for TAS | Marine services | Other Formats
Station Details ID: 092114 Name: FRIENDLY BEACHES Lat: -42.00 Lon: 148.28 Height: 55.0 m
Data from the previous 72 hours. | See also: Recent months at Friendly Beaches
Date/Time
EDT
Temp

°C
Wind Pressure Rain
since 9am
mm
Weather Cloud Vis
km
Sea
Height
m
Swell
Dir
 
Speed
knots
Gust
knots
hPa Trend Height
m
Period
s
Dir
01/06:00am 11.7 SW 10 19 1010.9 - 9.0 Rain - - - - - -
01/05:30am 11.8 SSW 9 17 1010.6 - 8.4 - - - - - - -
01/05:00am 11.9 SW 9 15 1010.4 - 7.6 - - - - - - -
01/04:30am 12.5 SSW 8 15 1010.3 - 7.4 - - - - - - -
01/04:00am 12.6 SW 12 18 1010.3 - 7.2 - - - - - - -
01/03:30am 12.8 SW 14 24 1010.3 - 7.2 - - - - - - -
01/03:00am 13.0 SW 11 21 1010.3 - 7.2 - - - - - - -
01/02:30am 13.0 SW 14 22 1010.3 - 7.2 - - - - - - -
01/02:16am 13.1 SW 15 28 1010.3 - 7.2 - - - - - - -
01/02:00am 13.1 SW 13 21 1010.4 - 7.2 - - - - - - -
01/01:30am 13.2 SW 12 19 1010.5 - 7.2 - - - - - - -
01/01:00am 13.4 SW 13 25 1010.5 - 7.2 - - - - - - -
01/12:30am 13.3 SW 10 16 1010.7 - 7.2 - - - - - - -
01/12:00am 12.8 SW 10 17 1010.8 - 7.2 - - - - - - -
 
Date/Time
EDT
Temp

°C
Wind Pressure Rain
since 9am
mm
Weather Cloud Vis
km
Sea
Height
m
Swell
Dir
 
Speed
knots
Gust
knots
hPa Trend Height
m
Period
s
Dir
31/11:30pm 13.3 SW 12 19 1010.9 - 7.2 - - - - - - -
31/11:00pm 13.4 SW 13 20 1010.9 - 7.2 - - - - - - -
31/10:30pm 13.3 SW 12 20 1010.7 - 7.2 - - - - - - -
31/10:00pm 13.1 SW 12 18 1010.9 - 7.2 - - - - - - -
31/09:30pm 12.9 SW 13 22 1010.8 - 7.2 - - - - - - -
31/09:00pm 12.8 SW 10 20 1010.5 - 7.2 Recent precip. - - - - - -
31/08:30pm 13.0 SW 12 20 1010.2 - 7.0 - - - - - - -
31/08:00pm 13.0 SSW 11 20 1010.0 - 6.8 - - - - - - -
31/07:30pm 13.1 SSW 12 22 1009.6 - 6.6 - - - - - - -
31/07:07pm 13.1 SSW 15 28 1009.4 - 6.4 - - - - - - -
31/07:00pm 13.2 SSW 15 24 1009.3 - 6.4 - - - - - - -
31/06:30pm 13.4 SSW 11 20 1009.1 - 5.8 - - - - - - -
31/06:00pm 13.6 SSW 13 20 1008.9 - 5.4 Rain - - - - - -
31/05:30pm 13.8 SSW 15 24 1008.9 - 5.2 - - - - - - -
31/05:00pm 14.3 SSW 11 20 1009.0 - 5.0 - - - - - - -
31/04:30pm 14.4 SSW 13 23 1008.7 - 5.0 - - - - - - -
31/04:00pm 14.0 SSW 14 26 1008.6 - 5.0 - - - - - - -
31/03:30pm 13.8 SSW 13 23 1008.5 - 5.0 - - - - - - -
31/03:00pm 13.7 SSW 13 22 1008.5 - 4.6 Rain - - - - - -
31/02:30pm 14.1 SSW 10 23 1008.5 - 3.6 - - - - - - -
31/02:00pm 14.2 SSW 10 19 1008.5 - 3.0 - - - - - - -
31/01:30pm 14.3 SSW 12 20 1008.4 - 2.6 - - - - - - -
31/01:07pm 14.6 SSW 16 27 1008.5 - 2.6 - - - - - - -
31/01:00pm 14.6 SSW 15 25 1008.5 - 2.6 - - - - - - -
31/12:30pm 14.4 SSW 15 25 1008.6 - 2.6 - - - - - - -
31/12:25pm 14.2 SSW 15 26 1008.6 - 2.6 - - - - - - -
31/12:00pm 14.3 SSW 13 22 1008.7 - 2.4 Recent precip. - - - - - -
31/11:30am 14.2 SSW 15 25 1008.8 - 2.4 - - - - - - -
31/11:00am 13.9 SSW 15 25 1008.9 - 2.2 - - - - - - -
31/10:30am 13.7 SSW 15 25 1008.9 - 2.0 - - - - - - -
31/10:00am 13.7 SSW 17 29 1008.8 - 1.6 - - - - - - -
31/09:33am 13.5 SSW 15 27 1008.9 - 1.0 - - - - - - -
31/09:30am 13.5 SSW 14 23 1008.9 - 1.0 - - - - - - -
31/09:00am 13.4 SSW 15 25 1008.9 - 21.2 Rain - - - - - -
31/08:57am 13.4 SSW 15 25 1008.9 - 21.2 - - - - - - -
31/08:30am 13.3 SSW 13 27 1008.7 - 20.2 - - - - - - -
31/08:00am 13.3 SSW 13 22 1008.7 - 19.2 - - - - - - -
31/07:31am 13.2 SSW 15 33 1008.5 - 18.8 - - - - - - -
31/07:30am 13.3 SSW 14 25 1008.7 - 18.8 - - - - - - -
31/07:00am 13.2 SSW 17 27 1008.5 - 18.2 - - - - - - -
31/06:36am 13.2 SSW 15 26 1008.5 - 18.0 - - - - - - -
31/06:30am 13.2 SSW 14 23 1008.5 - 18.0 - - - - - - -
31/06:00am 13.1 SSW 15 26 1008.4 - 17.6 Rain - - - - - -
31/05:38am 13.1 SSW 15 27 1008.2 - 17.2 - - - - - - -
31/05:30am 13.1 SSW 12 22 1008.1 - 17.0 - - - - - - -
31/05:00am 13.0 SSW 11 24 1008.2 - 16.4 - - - - - - -
31/04:30am 12.9 SSW 13 21 1008.2 - 15.8 - - - - - - -
31/04:00am 12.8 SW 13 20 1008.6 - 14.8 - - - - - - -
31/03:30am 12.8 SW 14 22 1008.7 - 13.6 - - - - - - -
31/03:00am 12.8 SW 14 25 1009.0 - 13.0 Rain - - - - - -
31/02:48am 12.8 SW 15 25 1009.0 - 12.6 - - - - - - -
31/02:30am 12.7 SSW 13 21 1009.2 - 12.2 - - - - - - -
31/02:00am 12.6 SSW 14 23 1009.7 - 11.2 - - - - - - -
31/01:30am 12.5 SSW 15 27 1010.1 - 10.4 - - - - - - -
31/01:28am 12.5 SSW 15 27 1010.1 - 10.4 - - - - - - -
31/01:00am 12.3 SW 10 16 1010.3 - 9.4 - - - - - - -
31/12:30am 12.3 SW 11 18 1010.4 - 7.8 - - - - - - -
31/12:00am 12.3 SW 12 19 1010.6 - 7.0 Rain - - - - - -
 
Date/Time
EDT
Temp

°C
Wind Pressure Rain
since 9am
mm
Weather Cloud Vis
km
Sea
Height
m
Swell
Dir
 
Speed
knots
Gust
knots
hPa Trend Height
m
Period
s
Dir
30/11:30pm 12.3 SW 10 16 1011.0 - 5.4 - - - - - - -
30/11:13pm 12.4 SSW 15 26 1011.2 - 4.8 - - - - - - -
30/11:00pm 12.3 SSW 14 28 1011.2 - 4.6 - - - - - - -
30/10:30pm 12.1 SW 13 22 1011.6 - 3.8 - - - - - - -
30/10:00pm 12.1 SW 13 24 1011.9 - 3.2 - - - - - - -
30/09:30pm 12.1 SSW 15 27 1012.2 - 2.6 - - - - - - -
30/09:24pm 12.0 SSW 15 27 1012.2 - 2.4 - - - - - - -
30/09:00pm 12.0 SSW 14 25 1012.2 - 1.8 Rain - - - - - -
30/08:30pm 12.0 SSW 15 28 1012.3 - 1.2 - - - - - - -
30/08:17pm 12.1 SSW 15 27 1012.2 - 0.8 - - - - - - -
30/08:00pm 12.1 SW 14 24 1012.3 - 0.4 - - - - - - -
30/07:39pm 12.3 SSW 16 26 1012.1 - 0.2 - - - - - - -
30/07:30pm 12.3 SSW 14 25 1012.2 - 0.2 - - - - - - -
30/07:06pm 12.7 SSW 15 28 1012.2 - 0.0 - - - - - - -
30/07:00pm 12.9 SSW 11 19 1012.3 - 0.0 - - - - - - -
30/06:33pm 12.6 SSW 15 26 1012.4 - 0.0 - - - - - - -
30/06:30pm 12.8 SSW 13 25 1012.5 - 0.0 - - - - - - -
30/06:03pm 13.9 SSW 15 25 1012.5 - 0.0 - - - - - - -
30/06:00pm 13.9 SSW 15 25 1012.6 - 0.0 - - - - - - -
30/05:30pm 14.4 SSW 18 28 1012.8 - 0.0 - - - - - - -
30/05:03pm 14.3 SSW 15 26 1013.1 - 0.0 - - - - - - -
30/05:00pm 14.3 SSW 16 25 1013.2 - 0.0 - - - - - - -
30/04:35pm 15.0 S 15 29 1013.3 - 0.0 - - - - - - -
30/04:30pm 14.9 S 12 20 1013.4 - 0.0 - - - - - - -
30/04:02pm 14.5 S 16 28 1013.5 - 0.0 - - - - - - -
30/04:00pm 14.5 S 16 25 1013.5 - 0.0 - - - - - - -
30/03:30pm 14.9 S 16 29 1013.7 - 0.0 - - - - - - -
30/03:00pm 14.6 S 15 25 1014.0 - 0.0 - - - - - - -
30/02:30pm 14.8 S 16 26 1014.1 - 0.0 - - - - - - -
30/02:02pm 14.6 S 15 26 1014.4 - 0.0 - - - - - - -
30/02:00pm 14.5 S 14 26 1014.4 - 0.0 - - - - - - -
30/01:30pm 14.6 S 13 24 1014.6 - 0.0 - - - - - - -
30/01:00pm 15.2 S 13 23 1014.7 - 0.0 - - - - - - -
30/12:35pm 14.6 S 15 27 1015.0 - 0.0 - - - - - - -
30/12:30pm 14.7 S 13 21 1015.1 - 0.0 - - - - - - -
30/12:00pm 14.9 S 11 21 1015.4 - 0.0 - - - - - - -
30/11:30am 15.1 S 15 25 1015.6 - 0.0 - - - - - - -
30/11:00am 14.8 S 11 21 1015.9 - 0.0 - - - - - - -
30/10:30am 13.8 S 15 21 1016.1 - 0.0 - - - - - - -
30/10:00am 14.3 S 15 24 1016.4 - 0.0 - - - - - - -
30/09:30am 14.3 S 12 18 1016.6 - 0.0 - - - - - - -
30/09:00am 13.8 S 13 21 1016.6 - 4.6 - - - - - - -
30/08:30am 13.0 S 12 22 1016.7 - 4.6 - - - - - - -
30/08:00am 13.0 S 10 17 1016.9 - 4.6 - - - - - - -
30/07:30am 12.8 S 10 17 1016.8 - 4.6 - - - - - - -
30/07:00am 12.8 S 9 16 1016.9 - 4.6 - - - - - - -
30/06:30am 12.7 S 9 19 1017.0 - 4.6 - - - - - - -
30/06:00am 12.7 S 12 17 1017.0 - 4.6 - - - - - - -
30/05:30am 12.6 S 9 15 1017.0 - 4.6 - - - - - - -
30/05:00am 12.7 S 9 16 1017.2 - 4.6 - - - - - - -
30/04:30am 12.7 SSW 10 18 1017.3 - 4.6 - - - - - - -
30/04:00am 12.7 S 12 18 1017.5 - 4.6 - - - - - - -
30/03:30am 12.5 S 14 20 1017.6 - 4.6 - - - - - - -
30/03:00am 12.4 S 10 18 1017.9 - 4.6 - - - - - - -
30/02:30am 11.9 SSW 9 15 1018.3 - 4.6 - - - - - - -
30/02:00am 11.5 SSW 8 13 1018.7 - 4.6 - - - - - - -
30/01:30am 12.6 SSW 9 15 1018.9 - 4.4 - - - - - - -
30/01:00am 12.7 S 12 19 1019.2 - 4.4 - - - - - - -
30/12:30am 12.5 SSW 9 15 1019.3 - 4.4 - - - - - - -
30/12:00am 12.7 S 10 16 1019.9 - 4.4 - - - - - - -
 
Date/Time
EDT
Temp

°C
Wind Pressure Rain
since 9am
mm
Weather Cloud Vis
km
Sea
Height
m
Swell
Dir
 
Speed
knots
Gust
knots
hPa Trend Height
m
Period
s
Dir
29/11:30pm 12.5 S 11 18 1020.2 - 4.4 - - - - - - -
29/11:00pm 12.6 S 11 18 1020.7 - 4.4 - - - - - - -
29/10:30pm 12.6 S 8 14 1021.0 - 4.4 - - - - - - -
29/10:00pm 12.6 S 10 19 1020.8 - 4.4 - - - - - - -
29/09:30pm 12.5 SSW 9 16 1020.8 - 4.4 - - - - - - -
29/09:00pm 12.8 S 12 18 1020.9 - 4.4 - - - - - - -
29/08:30pm 12.8 S 10 17 1021.1 - 4.4 - - - - - - -
29/08:00pm 13.1 S 12 17 1021.2 - 4.4 - - - - - - -
29/07:30pm 13.4 S 13 24 1021.1 - 4.4 - - - - - - -
29/07:00pm 13.8 S 14 22 1021.0 - 4.4 - - - - - - -
29/06:30pm 14.1 SSE 14 21 1020.9 - 4.4 - - - - - - -
29/06:00pm 14.8 S 13 19 1021.0 - 4.4 - - - - - - -
29/05:30pm 14.6 SSE 16 23 1021.3 - 4.4 - - - - - - -
29/05:00pm 15.1 SSE 17 23 1021.6 - 4.4 - - - - - - -
29/04:30pm 15.6 SSE 11 19 1021.7 - 4.4 - - - - - - -
29/04:00pm 15.3 SSE 17 25 1021.7 - 4.4 - - - - - - -
29/03:30pm 15.0 SSE 21 27 1021.9 - 4.4 - - - - - - -
29/03:00pm 16.2 SSE 17 25 1021.9 - 4.4 - - - - - - -
29/02:30pm 15.9 SSE 16 24 1022.2 - 4.4 - - - - - - -
29/02:00pm 15.7 SSE 15 20 1022.5 - 4.4 - - - - - - -
29/01:30pm 14.8 S 12 19 1022.8 - 4.4 - - - - - - -
29/01:00pm 14.7 SSE 15 19 1022.8 - 4.4 - - - - - - -
29/12:30pm 15.4 SSE 17 25 1022.8 - 4.4 - - - - - - -
29/12:00pm 15.1 SSE 14 19 1023.0 - 4.4 Recent precip. - - - - - -
29/11:30am 13.5 SSE 14 21 1023.3 - 4.4 - - - - - - -
29/11:00am 12.9 SSE 12 22 1023.2 - 3.6 - - - - - - -
29/10:30am 13.6 S 10 16 1023.2 - 3.6 - - - - - - -
29/10:00am 12.8 S 8 13 1023.5 - 3.6 - - - - - - -
29/09:30am 12.2 S 6 14 1023.4 - 0.2 - - - - - - -
29/09:00am 12.2 S 6 9 1023.5 - 5.8 Rain - - - - - -
29/08:30am 12.8 SSE 12 19 1023.3 - 4.0 - - - - - - -
29/08:00am 13.2 S 7 11 1023.1 - 4.0 - - - - - - -
29/07:30am 12.9 S 7 11 1023.1 - 4.0 - - - - - - -
29/07:00am 12.6 S 8 14 1023.0 - 4.0 - - - - - - -
29/06:30am 12.3 S 9 14 1022.8 - 4.0 - - - - - - -

Other Formats:

Comma delimited format used in spreadsheet applications
http://www.bom.gov.au/fwo/IDT60701/IDT60701.94987.axf

JavaScript Object Notation format (JSON) in row-major order
http://www.bom.gov.au/fwo/IDT60701/IDT60701.94987.json